Aitkin, Minnesota
Current Conditions -  °F | °C
As of 10:14 AM on Sunday 25 Jan 2015 (Local Time) from KAIT Reporting Station
Unknown Precip Unknown Precip  
Wind Chill: -10°   Ceiling: 1700
Heat Index: -5°   Visibility: 10mi
Dew Point: -9°   Wind: 7mph
Humidity: 74%   Direction: 60°ENE
Pressure: 30.02"   Gusts: NA
Location:  46.53°N, 93.71°W
Report Text: KAIT 251614Z AUTO 06006KT 10SM UP OVC017 M05/M09 A3002 RMK AO2
Loading
Personal Weather Stations






























Interactive Weather Map New forecast layout! Learn more

10-Day Weather Forecast

Advertisements
Track Severe Weather on mobile